createdAt,value
2019-06-20T00:00:44.339Z,79.18
2019-06-20T00:03:48.779Z,78.29
2019-06-20T00:06:53.233Z,75.85
2019-06-20T00:09:57.696Z,74.51
2019-06-20T00:13:02.157Z,74.99
2019-06-20T00:16:06.889Z,74.34
2019-06-20T00:19:11.333Z,73.84
2019-06-20T00:22:16.055Z,74.49
2019-06-20T00:25:20.513Z,73.91
2019-06-20T00:28:26.180Z,72.17
2019-06-20T00:35:54.122Z,74.43
2019-06-20T00:38:58.885Z,75.56
2019-06-20T00:42:03.798Z,76.78
2019-06-20T00:45:08.758Z,77.15
2019-06-20T00:48:13.211Z,76.25
2019-06-20T00:51:17.901Z,76.19
2019-06-20T00:54:22.359Z,76.55
2019-06-20T00:57:26.803Z,76.56
2019-06-20T01:00:31.240Z,75.95
2019-06-20T01:03:35.691Z,76.57
2019-06-20T01:06:40.137Z,76.74
2019-06-20T01:09:44.577Z,77.09
2019-06-20T01:12:49.029Z,77.45
2019-06-20T01:15:53.513Z,77.16
2019-06-20T01:18:57.922Z,77.89
2019-06-20T01:22:02.484Z,77.34
2019-06-20T01:25:08.740Z,77.64
2019-06-20T01:28:13.197Z,77.78
2019-06-20T01:31:17.657Z,78.04
2019-06-20T01:34:22.096Z,77.91
2019-06-20T01:37:26.550Z,76.76
2019-06-20T01:40:30.991Z,76.99
2019-06-20T01:43:49.590Z,76.96
2019-06-20T01:46:41.646Z,77.78
2019-06-20T01:49:46.356Z,77.87
2019-06-20T01:52:50.830Z,77.75
2019-06-20T01:55:55.612Z,77.52
2019-06-20T01:59:00.062Z,77.39
2019-06-20T02:02:04.662Z,76.66
2019-06-20T02:05:09.542Z,77.15
2019-06-20T02:08:14.063Z,77.55
2019-06-20T02:11:18.768Z,78.37
2019-06-20T02:14:23.235Z,78.87
2019-06-20T02:17:27.691Z,78.31
2019-06-20T02:20:51.752Z,80.09
2019-06-20T02:23:56.204Z,80.93
2019-06-20T02:27:00.663Z,81.58
2019-06-20T02:30:06.503Z,80.64
2019-06-20T02:33:11.124Z,80.90
2019-06-20T02:36:15.577Z,80.70
2019-06-20T02:39:20.030Z,80.46
2019-06-20T02:42:24.491Z,79.91
2019-06-20T02:45:28.932Z,79.92
2019-06-20T02:48:33.552Z,79.76
2019-06-20T02:51:38.448Z,78.98
2019-06-20T02:54:42.911Z,78.13
2019-06-20T02:57:47.367Z,78.29
2019-06-20T03:00:59.689Z,77.65
2019-06-20T03:04:04.212Z,78.09
2019-06-20T03:07:08.677Z,78.73
2019-06-20T03:10:13.462Z,78.75
2019-06-20T03:13:17.928Z,79.31
2019-06-20T03:16:22.376Z,79.60
2019-06-20T03:19:26.833Z,79.73
2019-06-20T03:22:31.290Z,79.49
2019-06-20T03:25:35.733Z,80.00
2019-06-20T03:28:40.198Z,80.82
2019-06-20T03:31:44.640Z,81.32
2019-06-20T03:34:49.089Z,81.50
2019-06-20T03:37:53.547Z,81.36
2019-06-20T03:40:57.989Z,80.25
2019-06-20T03:44:02.517Z,80.60
2019-06-20T03:47:07.221Z,81.06
2019-06-20T03:50:12.108Z,81.15
2019-06-20T03:53:16.563Z,81.18
2019-06-20T03:56:21.010Z,81.86
2019-06-20T03:59:25.465Z,82.86
2019-06-20T04:02:29.907Z,82.78
2019-06-20T04:05:34.956Z,83.25
2019-06-20T04:08:39.412Z,83.47
2019-06-20T04:11:44.138Z,83.63
2019-06-20T04:14:49.164Z,84.04
2019-06-20T04:17:53.727Z,84.07
2019-06-20T04:20:58.188Z,83.47
2019-06-20T04:24:02.645Z,82.65
2019-06-20T04:27:07.098Z,79.85
2019-06-20T04:30:12.126Z,78.55
2019-06-20T04:33:16.856Z,79.28
2019-06-20T04:36:21.973Z,80.96
2019-06-20T04:39:26.425Z,81.13
2019-06-20T04:42:30.869Z,80.21
2019-06-20T04:45:40.607Z,80.64
2019-06-20T04:48:45.061Z,81.52
2019-06-20T04:51:49.513Z,81.85
2019-06-20T04:54:53.967Z,81.44
2019-06-20T04:57:58.413Z,81.54
2019-06-20T05:01:03.062Z,81.43
2019-06-20T05:04:07.859Z,81.38
2019-06-20T05:07:19.947Z,81.22
2019-06-20T05:10:24.404Z,80.89
2019-06-20T05:13:28.835Z,79.93
2019-06-20T05:16:34.054Z,79.76
2019-06-20T05:19:38.525Z,80.73
2019-06-20T05:22:42.980Z,81.11
2019-06-20T05:25:47.724Z,80.94
2019-06-20T05:28:52.375Z,80.02
2019-06-20T05:31:57.173Z,80.86
2019-06-20T05:35:03.087Z,81.34
2019-06-20T05:38:07.726Z,80.94
2019-06-20T05:41:12.178Z,81.42
2019-06-20T05:44:16.639Z,81.38
2019-06-20T05:47:21.111Z,81.09
2019-06-20T05:50:25.567Z,81.28
2019-06-20T05:53:30.018Z,80.76
2019-06-20T05:56:34.480Z,80.38
2019-06-20T05:59:39.255Z,80.71
2019-06-20T06:02:43.693Z,81.51
2019-06-20T06:05:48.401Z,81.44
2019-06-20T06:08:52.841Z,79.43
2019-06-20T06:11:57.319Z,80.16
2019-06-20T06:15:02.092Z,80.46
2019-06-20T06:18:06.522Z,78.01
2019-06-20T06:21:11.343Z,78.47
2019-06-20T06:24:15.794Z,78.40
2019-06-20T06:27:20.256Z,75.21
2019-06-20T06:30:25.841Z,74.99
2019-06-20T06:33:30.287Z,72.80
2019-06-20T06:36:34.751Z,72.59
2019-06-20T06:39:39.187Z,71.73
2019-06-20T06:42:43.651Z,69.81
2019-06-20T06:45:48.140Z,70.49
2019-06-20T06:48:52.548Z,71.28
2019-06-20T06:51:57.001Z,72.72
2019-06-20T06:55:01.470Z,70.87
2019-06-20T06:58:05.910Z,71.12
2019-06-20T07:01:10.444Z,73.47
2019-06-20T07:04:14.893Z,71.83
2019-06-20T07:07:19.639Z,73.88
2019-06-20T07:10:24.530Z,70.88
2019-06-20T07:13:28.977Z,66.18
2019-06-20T07:16:33.518Z,68.87
2019-06-20T07:19:37.968Z,66.14
2019-06-20T07:22:42.400Z,64.66
2019-06-20T07:25:46.861Z,62.12
2019-06-20T07:28:51.648Z,64.55
2019-06-20T07:31:56.240Z,64.97
2019-06-20T07:35:01.183Z,65.00
2019-06-20T07:38:05.640Z,62.79
2019-06-20T07:41:10.153Z,64.61
2019-06-20T07:44:14.858Z,62.00
2019-06-20T07:47:19.594Z,63.81
2019-06-20T07:50:24.034Z,63.98
2019-06-20T07:53:28.820Z,59.90
2019-06-20T07:56:34.930Z,61.01
2019-06-20T07:59:39.412Z,59.17
2019-06-20T08:02:44.172Z,58.90
2019-06-20T08:05:48.619Z,59.97
2019-06-20T08:08:53.139Z,57.72
2019-06-20T08:11:57.606Z,56.72
2019-06-20T08:15:14.402Z,57.22
2019-06-20T08:18:08.563Z,59.47
2019-06-20T08:21:13.075Z,59.28
2019-06-20T08:24:17.551Z,62.46
2019-06-20T08:27:23.712Z,60.82
2019-06-20T08:30:32.100Z,59.36
2019-06-20T08:33:36.556Z,58.71
2019-06-20T08:36:41.336Z,56.14
2019-06-20T08:39:45.856Z,56.67
2019-06-20T08:42:50.267Z,55.91
2019-06-20T08:45:56.227Z,56.31
2019-06-20T08:49:01.579Z,57.90
2019-06-20T08:52:06.108Z,56.35
2019-06-20T08:55:10.912Z,56.84
2019-06-20T08:58:15.424Z,59.40
2019-06-20T09:01:19.881Z,58.50
2019-06-20T09:04:24.621Z,53.17
2019-06-20T09:07:29.358Z,51.50
2019-06-20T09:10:39.531Z,52.98
2019-06-20T09:13:43.985Z,55.19
2019-06-20T09:16:48.448Z,54.00
2019-06-20T09:19:53.359Z,52.42
2019-06-20T09:22:59.085Z,55.37
2019-06-20T09:26:03.947Z,54.22
2019-06-20T09:29:08.419Z,55.01
2019-06-20T09:32:12.859Z,53.14
2019-06-20T09:35:17.568Z,56.57
2019-06-20T09:38:22.294Z,54.58
2019-06-20T09:41:26.743Z,55.79
2019-06-20T09:44:31.198Z,57.60
2019-06-20T09:47:35.660Z,57.26
2019-06-20T09:50:40.098Z,57.33
2019-06-20T09:53:44.555Z,56.63
2019-06-20T09:56:53.065Z,59.69
2019-06-20T10:00:05.836Z,59.38
2019-06-20T10:03:01.430Z,59.08
2019-06-20T10:06:13.867Z,58.90
2019-06-20T10:09:12.455Z,60.23
2019-06-20T10:12:16.900Z,58.53
2019-06-20T10:15:27.830Z,59.89
2019-06-20T10:18:32.291Z,59.42
2019-06-20T10:21:36.738Z,58.65
2019-06-20T10:24:41.194Z,60.83
2019-06-20T10:27:46.620Z,61.82
2019-06-20T10:30:53.435Z,61.68
2019-06-20T10:33:58.300Z,60.51
2019-06-20T10:37:03.028Z,60.98
2019-06-20T10:40:12.624Z,60.53
2019-06-20T10:43:17.078Z,61.45
2019-06-20T10:46:21.510Z,61.36
2019-06-20T10:49:25.968Z,61.69
2019-06-20T10:52:30.420Z,61.90
2019-06-20T10:55:34.879Z,60.06
2019-06-20T10:58:41.500Z,60.46
2019-06-20T11:01:46.610Z,60.53
2019-06-20T11:04:51.236Z,59.04
2019-06-20T11:07:55.682Z,61.16
2019-06-20T11:11:00.150Z,59.97
2019-06-20T11:14:05.247Z,59.23
2019-06-20T11:17:09.691Z,60.24
2019-06-20T11:20:15.675Z,60.08
2019-06-20T11:23:20.105Z,60.17
2019-06-20T11:26:24.879Z,60.87
2019-06-20T11:29:29.615Z,61.11
2019-06-20T11:32:34.047Z,60.81
2019-06-20T11:35:39.296Z,60.32
2019-06-20T11:38:44.575Z,61.20
2019-06-20T11:41:49.341Z,60.87
2019-06-20T11:44:53.898Z,59.42
2019-06-20T11:47:58.338Z,61.06
2019-06-20T11:51:02.783Z,61.50
2019-06-20T11:54:07.244Z,62.75
2019-06-20T11:57:11.724Z,63.66
2019-06-20T12:00:16.672Z,62.76
2019-06-20T12:03:21.118Z,60.96
2019-06-20T12:06:25.852Z,62.37
2019-06-20T12:09:30.305Z,62.03
2019-06-20T12:12:34.814Z,61.65
2019-06-20T12:15:39.763Z,62.72
2019-06-20T12:18:51.659Z,63.19
2019-06-20T12:21:56.108Z,62.10
2019-06-20T12:25:00.556Z,62.00
2019-06-20T12:28:05.237Z,62.80
2019-06-20T12:31:18.998Z,63.68
2019-06-20T12:34:15.872Z,63.42
2019-06-20T12:37:20.333Z,62.65
2019-06-20T12:40:25.193Z,62.40
2019-06-20T12:43:29.595Z,62.60
2019-06-20T12:46:34.057Z,61.98
2019-06-20T12:49:39.070Z,62.29
2019-06-20T12:52:45.744Z,62.55
2019-06-20T12:55:50.843Z,62.80
2019-06-20T12:58:55.301Z,64.85
2019-06-20T13:01:59.773Z,64.25
2019-06-20T13:05:07.829Z,63.78
2019-06-20T13:08:13.643Z,64.79
2019-06-20T13:11:18.677Z,65.23
2019-06-20T13:14:23.148Z,68.10
2019-06-20T13:17:27.585Z,69.34
2019-06-20T13:20:32.051Z,69.89
2019-06-20T13:23:36.495Z,71.18
2019-06-20T13:26:42.345Z,72.68
2019-06-20T13:29:47.299Z,73.69
2019-06-20T13:32:51.802Z,75.72
2019-06-20T13:35:56.280Z,75.57
2019-06-20T13:39:00.835Z,74.13
2019-06-20T13:42:05.387Z,74.53
2019-06-20T13:45:26.031Z,74.63
2019-06-20T13:48:30.465Z,75.50
2019-06-20T13:51:35.264Z,74.79
2019-06-20T13:54:41.605Z,75.71
2019-06-20T13:57:47.187Z,76.69
2019-06-20T14:00:52.758Z,75.33
2019-06-20T14:03:57.340Z,76.41
2019-06-20T14:07:01.793Z,75.98
2019-06-20T14:10:08.014Z,75.98
2019-06-20T14:13:19.339Z,76.30
2019-06-20T14:16:19.184Z,75.12
2019-06-20T14:19:23.603Z,73.68
2019-06-20T14:22:28.056Z,73.13
2019-06-20T14:25:34.286Z,73.37
2019-06-20T14:28:38.856Z,72.66
2019-06-20T14:31:44.405Z,73.17
2019-06-20T14:34:50.352Z,71.36
2019-06-20T14:37:55.552Z,71.94
2019-06-20T14:41:00.596Z,70.10
2019-06-20T14:44:05.117Z,69.17
2019-06-20T14:47:11.080Z,67.31
2019-06-20T14:50:15.929Z,65.00
2019-06-20T14:53:20.649Z,66.98
2019-06-20T14:56:25.096Z,67.46
2019-06-20T14:59:29.534Z,67.87
2019-06-20T15:02:38.627Z,67.11
2019-06-20T15:05:40.163Z,66.59
2019-06-20T15:08:45.820Z,66.24
2019-06-20T15:11:53.098Z,61.73
2019-06-20T15:14:57.742Z,61.57
2019-06-20T15:18:02.494Z,62.44
2019-06-20T15:21:07.210Z,63.61
2019-06-20T15:24:11.651Z,62.18
2019-06-20T15:27:16.105Z,62.52
2019-06-20T15:30:20.618Z,63.77
2019-06-20T15:33:25.075Z,67.07
2019-06-20T15:36:29.527Z,70.77
2019-06-20T15:39:33.978Z,71.85
2019-06-20T15:42:38.442Z,72.44
2019-06-20T15:45:42.878Z,72.68
2019-06-20T15:48:47.403Z,73.36
2019-06-20T15:51:51.848Z,72.96
2019-06-20T15:54:56.316Z,72.65
2019-06-20T15:58:01.104Z,72.59
2019-06-20T16:01:05.574Z,73.23
2019-06-20T16:04:10.017Z,74.23
2019-06-20T16:07:14.466Z,74.86
2019-06-20T16:10:19.349Z,74.99
2019-06-20T16:13:23.805Z,75.22
2019-06-20T16:16:28.246Z,74.83
2019-06-20T16:19:33.055Z,74.31
2019-06-20T16:22:37.837Z,74.10
2019-06-20T16:25:42.566Z,73.93
2019-06-20T16:28:47.089Z,73.98
2019-06-20T16:31:51.477Z,74.78
2019-06-20T16:34:55.936Z,75.43
2019-06-20T16:38:00.511Z,71.25
2019-06-20T16:41:05.193Z,65.58
2019-06-20T16:44:10.042Z,69.01
2019-06-20T16:47:14.458Z,69.83
2019-06-20T16:50:19.393Z,71.40
2019-06-20T16:53:23.842Z,66.62
2019-06-20T16:56:28.367Z,67.41
2019-06-20T16:59:33.065Z,65.26
2019-06-20T17:02:37.655Z,63.57
2019-06-20T17:05:42.838Z,64.83
2019-06-20T17:08:47.287Z,66.85
2019-06-20T17:11:51.746Z,66.70
2019-06-20T17:14:56.218Z,67.86
2019-06-20T17:18:00.929Z,68.47
2019-06-20T17:21:05.777Z,69.05
2019-06-20T17:24:10.243Z,68.96
2019-06-20T17:27:14.678Z,69.79
2019-06-20T17:30:21.206Z,69.99
2019-06-20T17:33:25.657Z,70.88
2019-06-20T17:36:30.162Z,73.30
2019-06-20T17:39:34.613Z,74.36
2019-06-20T17:42:39.141Z,75.54
2019-06-20T17:45:43.674Z,75.21
2019-06-20T17:48:48.440Z,76.18
2019-06-20T17:51:52.891Z,77.37
2019-06-20T17:54:57.513Z,76.88
2019-06-20T17:58:02.226Z,77.23
2019-06-20T18:01:06.751Z,77.63
2019-06-20T18:04:14.044Z,77.93
2019-06-20T18:07:17.399Z,78.03
2019-06-20T18:10:22.475Z,78.03
2019-06-20T18:13:26.925Z,77.85
2019-06-20T18:16:31.385Z,78.12
2019-06-20T18:19:36.175Z,76.89
2019-06-20T18:22:40.625Z,76.24
2019-06-20T18:25:45.145Z,76.67
2019-06-20T18:28:49.656Z,76.47
2019-06-20T18:31:54.168Z,76.36
2019-06-20T18:35:02.291Z,74.73
2019-06-20T18:38:04.814Z,74.01
2019-06-20T18:41:09.276Z,73.15
2019-06-20T18:44:13.729Z,74.33
2019-06-20T18:47:18.187Z,74.19
2019-06-20T18:50:22.669Z,75.53
2019-06-20T18:53:27.086Z,76.31
2019-06-20T18:56:31.547Z,76.49
2019-06-20T18:59:35.986Z,76.87
2019-06-20T19:02:40.432Z,77.06
2019-06-20T19:05:44.887Z,76.74
2019-06-20T19:08:49.328Z,76.59
2019-06-20T19:11:53.801Z,76.73
2019-06-20T19:14:58.252Z,76.38
2019-06-20T19:18:02.793Z,76.90
2019-06-20T19:21:07.243Z,77.09
2019-06-20T19:24:12.035Z,77.06
2019-06-20T19:27:16.496Z,77.13
2019-06-20T19:30:24.557Z,76.82
2019-06-20T19:33:29.002Z,77.11
2019-06-20T19:36:33.462Z,77.59
2019-06-20T19:39:37.963Z,77.39
2019-06-20T19:42:42.463Z,77.69
2019-06-20T19:45:47.044Z,77.89
2019-06-20T19:48:51.495Z,77.64
2019-06-20T19:51:56.238Z,77.52
2019-06-20T19:55:00.685Z,78.27
2019-06-20T19:58:05.582Z,78.10
2019-06-20T20:01:10.030Z,77.67
2019-06-20T20:04:14.756Z,76.88
2019-06-20T20:07:19.301Z,77.05
2019-06-20T20:10:48.543Z,77.36
2019-06-20T20:13:52.989Z,76.19
2019-06-20T20:16:57.744Z,74.66
2019-06-20T20:20:02.196Z,72.81
2019-06-20T20:23:06.919Z,72.29
2019-06-20T20:26:11.367Z,72.23
2019-06-20T20:29:15.816Z,72.45
2019-06-20T20:32:20.270Z,72.52
2019-06-20T20:35:34.977Z,73.39
2019-06-20T20:38:31.157Z,74.88
2019-06-20T20:41:35.598Z,75.26
2019-06-20T20:44:40.045Z,75.27
2019-06-20T20:47:44.505Z,75.62
2019-06-20T20:50:48.946Z,75.56
2019-06-20T20:53:53.396Z,75.95
2019-06-20T20:56:57.856Z,76.98
2019-06-20T21:00:02.431Z,76.38
2019-06-20T21:03:07.485Z,76.06
2019-06-20T21:06:12.076Z,75.11
2019-06-20T21:09:16.834Z,75.88
2019-06-20T21:12:21.285Z,76.42
2019-06-20T21:15:26.602Z,76.63
2019-06-20T21:18:31.059Z,76.89
2019-06-20T21:21:35.507Z,76.63
2019-06-20T21:24:39.958Z,77.20
2019-06-20T21:27:44.418Z,77.15
2019-06-20T21:30:48.869Z,77.53
2019-06-20T21:33:54.670Z,77.77
2019-06-20T21:36:59.202Z,77.88
2019-06-20T21:40:05.263Z,78.00
2019-06-20T21:43:09.711Z,77.83
2019-06-20T21:46:15.139Z,77.70
2019-06-20T21:49:19.590Z,78.05
2019-06-20T21:52:24.293Z,77.37
2019-06-20T21:55:28.728Z,77.22
2019-06-20T21:58:33.184Z,76.50
2019-06-20T22:01:38.060Z,77.20
2019-06-20T22:04:54.088Z,75.70
2019-06-20T22:07:49.004Z,75.64
2019-06-20T22:10:53.441Z,75.81
2019-06-20T22:13:57.985Z,75.64
2019-06-20T22:17:02.473Z,75.31
2019-06-20T22:20:11.498Z,75.76
2019-06-20T22:23:16.016Z,75.34
2019-06-20T22:26:20.740Z,76.10
2019-06-20T22:29:25.191Z,75.99
2019-06-20T22:32:29.656Z,75.44
2019-06-20T22:35:34.102Z,75.42
2019-06-20T22:38:38.563Z,75.70
2019-06-20T22:41:43.258Z,75.40
2019-06-20T22:44:47.726Z,73.67
2019-06-20T22:47:52.173Z,74.16
2019-06-20T22:50:56.615Z,75.23
2019-06-20T22:54:01.066Z,75.56
2019-06-20T22:57:05.583Z,75.34
2019-06-20T23:00:10.827Z,75.55
2019-06-20T23:03:15.281Z,75.48
2019-06-20T23:06:19.722Z,75.95
2019-06-20T23:09:27.135Z,76.13
2019-06-20T23:12:30.367Z,76.01
2019-06-20T23:15:35.200Z,75.32
2019-06-20T23:18:39.651Z,74.91
2019-06-20T23:21:44.093Z,75.67
2019-06-20T23:24:48.558Z,76.66
2019-06-20T23:27:53.006Z,77.17
2019-06-20T23:30:57.520Z,77.90
2019-06-20T23:34:01.995Z,77.38
2019-06-20T23:37:12.560Z,77.40
2019-06-20T23:40:13.355Z,77.04
2019-06-20T23:43:17.798Z,76.81
2019-06-20T23:46:22.252Z,77.12
2019-06-20T23:49:26.729Z,76.21
2019-06-20T23:52:35.551Z,77.18
2019-06-20T23:55:40.004Z,77.27
2019-06-20T23:58:44.805Z,77.55
